Time;durP1;ratioP1;P1;durP2;ratioP2;P2;SDS_P1;SDS_P2;PMS_P1;PMS_P2;Temp;Humidity;BMP_temperature;BMP_pressure;BME280_temperature;BME280_humidity;BME280_pressure;Samples;Min_cycle;Max_cycle;Signal;HPM_P1;HPM_P2
2020/12/26 00:02:10;;;;;;;8.75;4.00;;;2.40;96.60;;;;;;5055150;28;20049;-66
2020/12/26 00:04:36;;;;;;;6.60;3.40;;;2.50;96.10;;;;;;5052339;28;20052;-66
2020/12/26 00:07:06;;;;;;;7.43;3.55;;;2.40;96.20;;;;;;5065448;28;20041;-66
2020/12/26 00:09:32;;;;;;;7.60;3.55;;;2.50;95.90;;;;;;5052765;28;20513;-66
2020/12/26 00:11:58;;;;;;;7.72;3.47;;;2.40;95.80;;;;;;5046907;28;20115;-67
2020/12/26 00:14:27;;;;;;;12.98;4.75;;;2.30;96.00;;;;;;5046884;28;20061;-67
2020/12/26 00:16:57;;;;;;;9.10;4.57;;;2.20;96.20;;;;;;5046745;28;20049;-66
2020/12/26 00:19:23;;;;;;;6.27;3.20;;;2.10;96.40;;;;;;5061281;28;20048;-66
2020/12/26 00:21:50;;;;;;;7.13;3.70;;;2.00;96.60;;;;;;5051884;28;20041;-67
2020/12/26 00:24:16;;;;;;;8.65;4.13;;;2.00;96.60;;;;;;5063941;28;20053;-66
2020/12/26 00:26:42;;;;;;;7.00;3.22;;;2.00;96.70;;;;;;5057160;28;20464;-67
2020/12/26 00:29:08;;;;;;;10.55;3.83;;;1.90;96.80;;;;;;5049232;28;20037;-67
2020/12/26 00:31:33;;;;;;;6.60;3.95;;;1.90;96.90;;;;;;5048152;28;20049;-66
2020/12/26 00:33:59;;;;;;;9.60;5.40;;;1.90;96.70;;;;;;5051173;28;20053;-66
2020/12/26 00:36:25;;;;;;;11.60;6.30;;;1.90;96.90;;;;;;5048520;28;20051;-66
2020/12/26 00:38:51;;;;;;;14.68;6.63;;;2.00;96.90;;;;;;5052545;28;20068;-67
2020/12/26 00:41:17;;;;;;;8.68;4.40;;;2.00;96.60;;;;;;5046780;28;20045;-67
2020/12/26 00:43:43;;;;;;;6.28;3.08;;;2.00;96.60;;;;;;5046676;28;20470;-66
2020/12/26 00:46:09;;;;;;;8.23;2.95;;;1.90;96.60;;;;;;5046579;28;20049;-67
2020/12/26 00:48:35;;;;;;;7.80;3.25;;;1.90;96.60;;;;;;5046343;28;20046;-67
2020/12/26 00:51:02;;;;;;;6.95;3.00;;;1.80;96.60;;;;;;5046330;28;20116;-66
2020/12/26 00:53:29;;;;;;;8.75;2.90;;;1.80;96.80;;;;;;5047103;28;20060;-67
2020/12/26 00:55:55;;;;;;;9.98;2.90;;;1.70;96.80;;;;;;5046455;28;20050;-67
2020/12/26 00:58:21;;;;;;;7.88;2.80;;;1.80;97.00;;;;;;5053977;28;20057;-67
2020/12/26 01:00:47;;;;;;;5.85;2.75;;;1.90;97.20;;;;;;5058205;28;20041;-67
2020/12/26 01:03:13;;;;;;;7.55;3.05;;;2.10;97.00;;;;;;5046279;28;20048;-67
2020/12/26 01:05:38;;;;;;;6.68;2.75;;;2.20;96.50;;;;;;5054586;28;20052;-66
2020/12/26 01:08:04;;;;;;;6.25;3.17;;;2.30;96.30;;;;;;5053414;28;20045;-67
2020/12/26 01:10:30;;;;;;;6.28;2.92;;;2.30;96.30;;;;;;5046901;28;20042;-67
2020/12/26 01:12:56;;;;;;;6.90;2.65;;;2.40;96.20;;;;;;5046176;28;20057;-67
2020/12/26 01:15:22;;;;;;;6.68;2.67;;;2.30;96.30;;;;;;5046287;28;20042;-67
2020/12/26 01:17:48;;;;;;;5.82;2.67;;;2.40;96.30;;;;;;5058228;28;20453;-66
2020/12/26 01:20:13;;;;;;;9.40;3.40;;;2.50;96.10;;;;;;5058079;28;20052;-66
2020/12/26 01:22:39;;;;;;;7.45;2.60;;;2.40;96.00;;;;;;5045857;28;20045;-67
2020/12/26 01:25:06;;;;;;;9.18;2.75;;;2.50;96.00;;;;;;5046095;28;20048;-66
2020/12/26 01:27:33;;;;;;;9.45;3.15;;;2.60;95.40;;;;;;5046444;28;20041;-67
2020/12/26 01:29:59;;;;;;;6.05;2.75;;;2.60;95.40;;;;;;5045614;28;20044;-67
2020/12/26 01:32:27;;;;;;;6.55;3.22;;;2.70;95.50;;;;;;5053536;28;20068;-66
2020/12/26 01:34:58;;;;;;;8.60;2.63;;;2.70;95.70;;;;;;5052706;28;20053;-66
2020/12/26 01:37:24;;;;;;;14.50;3.67;;;2.70;95.70;;;;;;5048073;28;20484;-67
2020/12/26 01:39:50;;;;;;;6.75;2.60;;;2.70;95.80;;;;;;5045445;28;20068;-67
2020/12/26 01:42:16;;;;;;;4.85;2.50;;;2.70;95.90;;;;;;5045686;28;20111;-67
2020/12/26 01:44:43;;;;;;;9.00;2.58;;;2.70;95.70;;;;;;5045368;28;20052;-66
2020/12/26 01:47:09;;;;;;;4.43;2.58;;;2.80;95.80;;;;;;5045381;28;20045;-66
2020/12/26 01:49:36;;;;;;;6.07;2.38;;;2.80;95.80;;;;;;5045076;28;20044;-67
2020/12/26 01:52:02;;;;;;;10.48;3.17;;;2.80;95.80;;;;;;5045266;28;20053;-67
2020/12/26 01:54:29;;;;;;;5.95;2.70;;;2.80;95.60;;;;;;5045469;28;20068;-66
2020/12/26 01:56:56;;;;;;;6.05;2.75;;;2.70;95.90;;;;;;5045063;28;20049;-66
2020/12/26 01:59:22;;;;;;;8.20;2.95;;;2.80;96.00;;;;;;5056288;28;20065;-67
2020/12/26 02:01:52;;;;;;;9.50;2.72;;;2.80;95.80;;;;;;5046686;28;20064;-67
2020/12/26 02:04:18;;;;;;;5.60;2.70;;;2.80;95.80;;;;;;5045253;28;20054;-66
2020/12/26 02:06:48;;;;;;;6.82;2.60;;;2.90;95.80;;;;;;5062965;28;20057;-66
2020/12/26 02:09:14;;;;;;;;;;;3.00;95.50;;;;;;5053024;28;20064;-67
2020/12/26 02:11:40;;;;;;;6.70;2.72;;;2.90;95.60;;;;;;5045352;28;19951;-67
2020/12/26 02:14:06;;;;;;;8.80;2.40;;;2.90;95.80;;;;;;5045144;28;20520;-66
2020/12/26 02:16:49;;;;;;;9.27;3.30;;;3.00;95.70;;;;;;5045081;28;20045;-66
2020/12/26 02:19:17;;;;;;;11.80;2.80;;;3.10;95.40;;;;;;5049144;28;20086;-67
2020/12/26 02:21:43;;;;;;;8.02;3.08;;;3.10;95.30;;;;;;5045002;28;20041;-66
2020/12/26 02:24:10;;;;;;;8.00;2.40;;;3.10;95.30;;;;;;5045360;28;20053;-67
2020/12/26 02:26:37;;;;;;;6.32;2.38;;;3.20;95.50;;;;;;5057461;28;20033;-66
2020/12/26 02:29:04;;;;;;;7.72;2.55;;;3.20;95.00;;;;;;5045605;28;20073;-67
2020/12/26 02:31:31;;;;;;;4.15;2.40;;;3.10;95.20;;;;;;5045824;28;20043;-67
2020/12/26 02:33:57;;;;;;;6.57;2.40;;;3.10;95.20;;;;;;5064490;28;20045;-67
2020/12/26 02:36:23;;;;;;;5.57;2.53;;;3.10;95.20;;;;;;5045679;28;20045;-67
2020/12/26 02:38:49;;;;;;;6.70;2.42;;;3.00;95.30;;;;;;5051327;28;20052;-66
2020/12/26 02:41:15;;;;;;;9.55;2.58;;;3.10;95.40;;;;;;5058790;28;20053;-66
2020/12/26 02:43:41;;;;;;;5.95;2.53;;;3.10;95.30;;;;;;5054025;28;20051;-66
2020/12/26 02:46:07;;;;;;;5.18;2.55;;;3.10;95.60;;;;;;5048577;28;20042;-66
2020/12/26 02:48:33;;;;;;;9.52;3.05;;;3.10;95.80;;;;;;5044772;28;20050;-67
2020/12/26 02:50:59;;;;;;;8.38;2.53;;;3.20;95.60;;;;;;5044815;28;20045;-67
2020/12/26 02:53:25;;;;;;;7.75;2.38;;;3.10;95.90;;;;;;5044501;28;20077;-67
2020/12/26 02:55:51;;;;;;;8.05;2.40;;;3.20;95.80;;;;;;5044784;28;20092;-66
2020/12/26 02:58:20;;;;;;;6.63;2.35;;;3.30;95.70;;;;;;5052003;28;20063;-66
2020/12/26 03:01:10;;;;;;;5.93;2.50;;;3.30;95.60;;;;;;5032496;28;20042;-66
2020/12/26 03:03:36;;;;;;;9.18;2.38;;;3.40;95.70;;;;;;5044826;28;20090;-67
2020/12/26 03:06:02;;;;;;;5.50;2.40;;;3.50;95.30;;;;;;5056581;28;20049;-67
2020/12/26 03:08:28;;;;;;;7.10;2.40;;;3.50;95.40;;;;;;5053993;28;20049;-66
2020/12/26 03:10:54;;;;;;;7.70;2.35;;;3.50;95.00;;;;;;5044269;28;20049;-66
2020/12/26 03:13:19;;;;;;;9.50;2.47;;;3.50;95.00;;;;;;5044581;28;20049;-67
2020/12/26 03:15:46;;;;;;;6.10;2.70;;;3.50;95.00;;;;;;5044368;28;20041;-66
2020/12/26 03:18:11;;;;;;;6.20;2.50;;;3.40;95.00;;;;;;5044495;28;20069;-66
2020/12/26 03:20:37;;;;;;;4.85;2.63;;;3.40;95.00;;;;;;5057381;28;20060;-66
2020/12/26 03:23:03;;;;;;;6.60;2.78;;;3.30;95.00;;;;;;5045087;28;20049;-67
2020/12/26 03:25:29;;;;;;;7.55;2.83;;;3.30;94.90;;;;;;5044378;28;20047;-67
2020/12/26 03:27:54;;;;;;;7.50;3.03;;;3.30;95.00;;;;;;5044569;28;20581;-67
2020/12/26 03:30:20;;;;;;;8.63;3.28;;;3.30;95.10;;;;;;5044840;28;20049;-67
2020/12/26 03:32:46;;;;;;;6.70;3.20;;;3.20;95.10;;;;;;5055061;28;20448;-67
2020/12/26 03:35:12;;;;;;;6.53;3.33;;;3.20;95.00;;;;;;5049893;28;20056;-66
2020/12/26 03:37:38;;;;;;;6.05;3.00;;;3.30;95.00;;;;;;5047631;28;20037;-66
2020/12/26 03:40:05;;;;;;;7.00;3.20;;;3.30;94.90;;;;;;5047740;28;20056;-67
2020/12/26 03:42:31;;;;;;;7.72;2.92;;;3.20;94.90;;;;;;5047852;28;20095;-67
2020/12/26 03:44:57;;;;;;;10.10;4.03;;;3.20;95.10;;;;;;5048001;28;20053;-66
2020/12/26 03:47:23;;;;;;;9.30;3.50;;;3.20;95.10;;;;;;5047830;28;20041;-66
2020/12/26 03:49:48;;;;;;;7.78;4.03;;;3.30;94.90;;;;;;5047274;28;20067;-66
2020/12/26 03:52:14;;;;;;;9.98;4.22;;;3.30;94.90;;;;;;5047628;28;20057;-66
2020/12/26 03:54:40;;;;;;;10.55;4.47;;;3.30;94.80;;;;;;5047616;28;20105;-67
2020/12/26 03:57:06;;;;;;;8.60;4.53;;;3.30;94.80;;;;;;5046947;28;20046;-67
2020/12/26 03:59:32;;;;;;;9.90;4.85;;;3.20;95.10;;;;;;5065236;28;20053;-67
2020/12/26 04:01:58;;;;;;;12.50;5.60;;;3.30;94.90;;;;;;5048429;28;20081;-67
2020/12/26 04:04:24;;;;;;;11.43;4.70;;;3.20;95.00;;;;;;5047439;28;20045;-66
2020/12/26 04:06:50;;;;;;;9.73;5.00;;;3.20;95.20;;;;;;5061114;28;20045;-67
2020/12/26 04:09:16;;;;;;;13.95;4.90;;;3.30;94.90;;;;;;5055351;28;20041;-66
2020/12/26 04:11:42;;;;;;;11.32;5.22;;;3.20;95.10;;;;;;5052618;28;20136;-67
2020/12/26 04:14:08;;;;;;;8.07;4.95;;;3.20;95.30;;;;;;5047086;28;20049;-66
2020/12/26 04:16:33;;;;;;;11.57;5.45;;;3.30;95.10;;;;;;5047319;28;20049;-66
2020/12/26 04:18:59;;;;;;;11.63;5.22;;;3.30;95.10;;;;;;5049624;28;20064;-67
2020/12/26 04:21:26;;;;;;;10.30;5.95;;;3.40;95.30;;;;;;5053191;28;20042;-66
2020/12/26 04:23:52;;;;;;;9.57;5.70;;;3.40;95.00;;;;;;5046980;28;20105;-66
2020/12/26 04:26:19;;;;;;;12.98;6.35;;;3.40;94.90;;;;;;5058682;28;20049;-66
2020/12/26 04:28:44;;;;;;;11.85;7.75;;;3.40;95.00;;;;;;5047225;28;20045;-66
2020/12/26 04:31:10;;;;;;;9.68;6.75;;;3.40;94.90;;;;;;5046824;28;20084;-67
2020/12/26 04:33:36;;;;;;;7.70;6.40;;;3.50;94.90;;;;;;5064985;28;20075;-67
2020/12/26 04:36:03;;;;;;;12.48;7.45;;;3.50;94.80;;;;;;5054850;28;20500;-66
2020/12/26 04:38:28;;;;;;;11.10;6.05;;;3.40;94.70;;;;;;5059732;28;20042;-66
2020/12/26 04:40:54;;;;;;;9.57;6.47;;;3.40;94.90;;;;;;5046455;28;20052;-66
2020/12/26 04:43:20;;;;;;;14.48;7.57;;;3.30;94.90;;;;;;5063348;28;20443;-66
2020/12/26 04:45:49;;;;;;;9.18;6.30;;;3.30;94.80;;;;;;5055575;28;20049;-67
2020/12/26 04:48:15;;;;;;;11.13;7.47;;;3.30;95.00;;;;;;5046906;28;20041;-66
2020/12/26 04:50:47;;;;;;;11.88;7.28;;;3.20;94.90;;;;;;5045256;28;20099;-66
2020/12/26 04:53:16;;;;;;;13.63;6.78;;;3.20;95.10;;;;;;5047310;28;20064;-66
2020/12/26 04:55:49;;;;;;;13.57;6.87;;;3.10;95.10;;;;;;5047256;28;20049;-66
2020/12/26 04:58:16;;;;;;;12.45;7.30;;;3.20;95.00;;;;;;5048968;28;20053;-67
2020/12/26 05:00:44;;;;;;;9.93;6.68;;;3.20;94.70;;;;;;5053598;28;20047;-67
2020/12/26 05:03:11;;;;;;;12.38;6.97;;;3.20;94.70;;;;;;5060456;28;20047;-66
2020/12/26 05:05:39;;;;;;;10.40;6.85;;;3.20;94.90;;;;;;5055101;28;20508;-66
2020/12/26 05:08:09;;;;;;;12.05;6.80;;;3.20;94.70;;;;;;5059824;28;20080;-66
2020/12/26 05:10:36;;;;;;;11.35;6.88;;;3.10;95.00;;;;;;5046299;28;20056;-66
2020/12/26 05:13:05;;;;;;;10.32;6.10;;;3.10;95.00;;;;;;5046096;28;20105;-66
2020/12/26 05:15:31;;;;;;;9.45;7.10;;;3.10;95.20;;;;;;5046243;28;20056;-66
2020/12/26 05:17:56;;;;;;;12.68;6.35;;;3.10;94.80;;;;;;5046120;28;20057;-66
2020/12/26 05:20:26;;;;;;;11.30;6.40;;;3.10;94.80;;;;;;5047134;28;20141;-66
2020/12/26 05:23:15;;;;;;;13.15;6.95;;;3.00;95.00;;;;;;5045980;28;20061;-66
2020/12/26 05:25:47;;;;;;;11.23;6.28;;;3.00;95.00;;;;;;5046296;28;20041;-66
2020/12/26 05:28:18;;;;;;;10.80;5.95;;;3.00;95.00;;;;;;5046190;28;20060;-66
2020/12/26 05:30:47;;;;;;;10.25;6.38;;;3.00;95.20;;;;;;5045806;28;20459;-66
2020/12/26 05:33:13;;;;;;;11.23;6.45;;;2.90;95.80;;;;;;5060130;28;20100;-66
2020/12/26 05:35:49;;;;;;;11.18;6.38;;;3.00;95.20;;;;;;5058978;28;20131;-66
2020/12/26 05:38:17;;;;;;;13.63;6.63;;;3.00;95.40;;;;;;5058010;28;20107;-66
2020/12/26 05:40:49;;;;;;;9.77;6.05;;;3.00;95.20;;;;;;5045355;28;20057;-66
2020/12/26 05:43:16;;;;;;;9.60;5.82;;;3.00;95.20;;;;;;5045356;28;20045;-66
2020/12/26 05:45:43;;;;;;;11.30;5.88;;;2.90;95.30;;;;;;5046443;28;20060;-66
2020/12/26 05:48:14;;;;;;;9.68;6.00;;;2.90;95.50;;;;;;5045476;28;20034;-66
2020/12/26 05:50:41;;;;;;;10.25;6.05;;;2.90;95.50;;;;;;5045568;28;20052;-66
2020/12/26 05:53:11;;;;;;;9.23;6.10;;;3.00;95.00;;;;;;5045694;28;20049;-66
2020/12/26 05:55:45;;;;;;;8.45;5.80;;;3.00;95.00;;;;;;5045694;28;20045;-66
2020/12/26 05:58:12;;;;;;;11.32;6.80;;;3.00;95.10;;;;;;5062621;28;20053;-66
2020/12/26 06:00:40;;;;;;;11.25;5.70;;;3.00;95.20;;;;;;5051470;28;20049;-66
2020/12/26 06:03:29;;;;;;;9.07;6.00;;;3.00;95.40;;;;;;5044982;28;20041;-66
2020/12/26 06:05:56;;;;;;;8.15;5.55;;;3.10;95.30;;;;;;5056235;28;20053;-66
2020/12/26 06:08:23;;;;;;;15.88;5.78;;;3.10;95.30;;;;;;5054243;28;20497;-66
2020/12/26 06:10:57;;;;;;;9.07;5.40;;;3.10;95.10;;;;;;5045067;28;20056;-66
2020/12/26 06:13:26;;;;;;;8.80;6.03;;;3.20;94.60;;;;;;5044957;28;20078;-66
2020/12/26 06:15:58;;;;;;;8.00;5.93;;;3.10;95.10;;;;;;5045163;28;20048;-66
2020/12/26 06:18:24;;;;;;;9.98;6.30;;;3.00;95.00;;;;;;5044762;28;20075;-66
2020/12/26 06:20:52;;;;;;;11.43;6.15;;;3.00;94.90;;;;;;5057032;28;20497;-66
2020/12/26 06:23:23;;;;;;;11.50;6.30;;;2.90;94.80;;;;;;5044735;28;20046;-66
2020/12/26 06:25:55;;;;;;;10.85;6.45;;;2.90;95.10;;;;;;5044791;28;20049;-66
2020/12/26 06:28:31;;;;;;;8.23;6.22;;;3.00;94.90;;;;;;5045056;28;20045;-67
2020/12/26 06:31:05;;;;;;;10.15;5.93;;;3.00;94.90;;;;;;5056988;28;20056;-66
2020/12/26 06:33:42;;;;;;;9.57;6.07;;;3.00;95.20;;;;;;5059857;28;20037;-66
2020/12/26 06:36:09;;;;;;;10.82;6.05;;;3.00;95.10;;;;;;5044841;28;20073;-66
2020/12/26 06:38:35;;;;;;;11.68;6.32;;;3.10;95.20;;;;;;5047185;28;20045;-66
2020/12/26 06:41:06;;;;;;;8.15;5.95;;;3.00;95.20;;;;;;5044909;28;20144;-66
2020/12/26 06:43:55;;;;;;;10.75;6.05;;;3.00;95.40;;;;;;5044581;28;20033;-66
2020/12/26 06:46:20;;;;;;;9.35;5.88;;;3.10;95.10;;;;;;5044080;28;20396;-66
2020/12/26 06:48:50;;;;;;;11.75;7.03;;;3.20;94.80;;;;;;5044455;28;20079;-66
2020/12/26 06:51:41;;;;;;;9.52;6.20;;;3.20;94.90;;;;;;5045100;28;20056;-66
2020/12/26 06:54:07;;;;;;;8.68;6.53;;;3.30;94.70;;;;;;5054798;28;20054;-66
2020/12/26 06:56:36;;;;;;;12.27;7.18;;;3.20;94.80;;;;;;5044669;28;20088;-66
2020/12/26 06:59:09;;;;;;;11.38;6.82;;;3.30;94.80;;;;;;5055852;28;20075;-66
2020/12/26 07:01:41;;;;;;;8.25;6.57;;;3.30;94.80;;;;;;5050341;28;20464;-66
2020/12/26 07:04:07;;;;;;;12.88;6.70;;;3.30;94.70;;;;;;5052507;28;20048;-67
2020/12/26 07:06:43;;;;;;;14.05;7.57;;;3.20;95.00;;;;;;5060674;28;20068;-66
2020/12/26 07:09:11;;;;;;;8.55;6.85;;;3.30;95.10;;;;;;5053450;28;20061;-66
2020/12/26 07:11:46;;;;;;;12.55;7.53;;;3.30;94.90;;;;;;5044660;28;20132;-66
2020/12/26 07:14:30;;;;;;;12.55;8.07;;;3.40;94.90;;;;;;5047116;28;20425;-67
2020/12/26 07:17:12;;;;;;;9.85;7.15;;;3.30;94.90;;;;;;5061302;28;20041;-66
2020/12/26 07:19:42;;;;;;;11.23;7.55;;;3.40;94.70;;;;;;5053600;28;20167;-66
2020/12/26 07:22:23;;;;;;;10.30;7.60;;;3.40;94.70;;;;;;5048211;28;20063;-66
2020/12/26 07:25:02;;;;;;;;;;;3.50;94.40;;;;;;5048558;28;20040;-66
2020/12/26 07:27:38;;;;;;;11.15;7.38;;;3.50;94.50;;;;;;5048021;28;20281;-66
2020/12/26 07:30:05;;;;;;;13.18;9.05;;;3.60;94.50;;;;;;5060661;28;20053;-66
2020/12/26 07:32:44;;;;;;;10.70;7.72;;;3.50;94.50;;;;;;5056894;28;20051;-66
2020/12/26 07:35:19;;;;;;;15.77;8.80;;;3.60;94.40;;;;;;5057914;28;20056;-66
2020/12/26 07:37:56;;;;;;;12.35;8.65;;;3.60;94.30;;;;;;5057045;28;20127;-66
2020/12/26 07:40:28;;;;;;;13.23;8.50;;;3.70;94.10;;;;;;5047940;28;20045;-66
2020/12/26 07:42:55;;;;;;;12.00;8.93;;;3.70;94.30;;;;;;5047699;28;20095;-66
2020/12/26 07:45:23;;;;;;;12.27;8.73;;;3.60;94.30;;;;;;5047662;28;20046;-66
2020/12/26 07:47:57;;;;;;;10.52;9.40;;;3.70;94.30;;;;;;5047756;28;20501;-66
2020/12/26 07:50:27;;;;;;;13.35;9.65;;;3.60;94.30;;;;;;5047410;28;20105;-66
2020/12/26 07:52:55;;;;;;;10.88;8.40;;;3.60;94.50;;;;;;5047567;28;20136;-66
2020/12/26 07:55:22;;;;;;;11.00;9.07;;;3.60;94.60;;;;;;5047465;28;20045;-67
2020/12/26 07:57:49;;;;;;;13.45;10.10;;;3.70;94.30;;;;;;5052230;28;20064;-66
2020/12/26 08:00:25;;;;;;;13.57;10.77;;;3.80;94.30;;;;;;5055026;28;20498;-70
2020/12/26 08:02:57;;;;;;;13.32;10.82;;;3.70;94.20;;;;;;5047276;28;20041;-65
2020/12/26 08:05:26;;;;;;;16.70;9.77;;;3.80;94.60;;;;;;5053927;28;20119;-66
2020/12/26 08:07:52;;;;;;;12.20;9.65;;;3.80;94.20;;;;;;5047215;28;20037;-66
2020/12/26 08:10:19;;;;;;;11.50;8.63;;;3.80;94.40;;;;;;5047286;28;20074;-70
2020/12/26 08:12:49;;;;;;;14.20;11.15;;;4.00;94.10;;;;;;5060408;28;20045;-66
2020/12/26 08:15:20;;;;;;;15.00;10.48;;;3.90;94.00;;;;;;5047077;28;20046;-66
2020/12/26 08:17:53;;;;;;;15.63;10.88;;;3.90;94.20;;;;;;5047106;28;20045;-65
2020/12/26 08:20:20;;;;;;;15.02;11.15;;;3.80;94.50;;;;;;5058730;28;20067;-66
2020/12/26 08:22:46;;;;;;;15.27;11.60;;;3.80;94.50;;;;;;5047036;28;20041;-66
2020/12/26 08:25:13;;;;;;;12.98;9.52;;;3.70;94.80;;;;;;5047645;28;20045;-65
2020/12/26 08:27:40;;;;;;;13.13;9.57;;;3.80;94.50;;;;;;5055833;28;20045;-66
2020/12/26 08:30:10;;;;;;;15.07;9.90;;;4.00;94.20;;;;;;5066369;28;20045;-68
2020/12/26 08:32:56;;;;;;;16.90;10.57;;;4.10;94.00;;;;;;5057183;28;20141;-63
2020/12/26 08:35:25;;;;;;;13.02;9.88;;;4.00;94.20;;;;;;5046539;28;20574;-63
2020/12/26 08:38:02;;;;;;;15.10;9.90;;;4.00;94.30;;;;;;5048471;28;20084;-66
2020/12/26 08:40:32;;;;;;;12.80;10.00;;;3.90;94.50;;;;;;5066350;28;20099;-65
2020/12/26 08:42:58;;;;;;;15.10;10.45;;;4.00;94.30;;;;;;5066591;28;20056;-64
2020/12/26 08:45:32;;;;;;;14.43;9.45;;;4.00;94.30;;;;;;5066276;28;20088;-64
2020/12/26 08:48:01;;;;;;;12.65;9.02;;;4.00;94.60;;;;;;5066957;28;20460;-65
2020/12/26 08:50:28;;;;;;;11.07;8.23;;;4.00;94.70;;;;;;5066312;28;20465;-65
2020/12/26 08:53:05;;;;;;;12.02;8.90;;;4.00;94.40;;;;;;5065933;28;20408;-64
2020/12/26 08:55:31;;;;;;;13.77;8.15;;;4.10;94.10;;;;;;5066039;28;20127;-65
2020/12/26 08:57:58;;;;;;;13.23;8.73;;;4.20;94.00;;;;;;5065534;28;20052;-64
2020/12/26 09:00:26;;;;;;;13.05;9.48;;;4.10;94.10;;;;;;5066051;28;20045;-65
2020/12/26 09:02:54;;;;;;;11.48;8.52;;;4.10;94.30;;;;;;5065942;28;20044;-64
2020/12/26 09:05:26;;;;;;;14.93;8.63;;;4.10;94.20;;;;;;5062604;28;20036;-64
2020/12/26 09:08:06;;;;;;;10.35;8.18;;;4.10;94.20;;;;;;5066312;28;20075;-64
2020/12/26 09:10:37;;;;;;;12.30;7.70;;;4.20;93.80;;;;;;5065584;28;20159;-66
2020/12/26 09:13:11;;;;;;;12.05;8.43;;;4.20;93.90;;;;;;5065929;28;20106;-68
2020/12/26 09:15:54;;;;;;;12.55;7.93;;;4.40;93.20;;;;;;5065418;28;20103;-68
2020/12/26 09:18:25;;;;;;;10.30;7.35;;;4.30;93.40;;;;;;5065826;28;20051;-66
2020/12/26 09:20:57;;;;;;;9.25;6.47;;;4.40;93.40;;;;;;5065486;28;20064;-65
2020/12/26 09:23:25;;;;;;;10.63;6.97;;;4.50;93.20;;;;;;5065692;28;20055;-65
2020/12/26 09:25:51;;;;;;;9.60;7.07;;;4.30;93.40;;;;;;5064926;28;20045;-66
2020/12/26 09:28:18;;;;;;;13.23;7.75;;;4.40;93.60;;;;;;5055956;28;20046;-65
2020/12/26 09:30:44;;;;;;;11.63;7.15;;;4.40;93.60;;;;;;5075372;28;20041;-65
2020/12/26 09:33:11;;;;;;;10.15;5.90;;;4.50;93.40;;;;;;5052740;28;20060;-65
2020/12/26 09:35:37;;;;;;;9.20;5.25;;;4.70;93.00;;;;;;5065021;28;20045;-66
2020/12/26 09:38:03;;;;;;;9.45;5.65;;;4.70;93.00;;;;;;5065728;28;20052;-64
2020/12/26 09:40:32;;;;;;;11.18;5.45;;;4.60;93.20;;;;;;5065420;28;20071;-63
2020/12/26 09:42:59;;;;;;;5.97;4.85;;;4.70;93.10;;;;;;5051933;28;20069;-67
2020/12/26 09:45:25;;;;;;;9.43;5.05;;;4.80;92.90;;;;;;5059086;28;20037;-66
2020/12/26 09:47:51;;;;;;;10.73;4.80;;;5.00;92.60;;;;;;5045822;28;20048;-66
2020/12/26 09:50:16;;;;;;;9.35;5.00;;;4.90;92.80;;;;;;5045539;28;20042;-65
2020/12/26 09:52:42;;;;;;;5.63;3.42;;;5.00;92.40;;;;;;5045409;28;20049;-65
2020/12/26 09:55:10;;;;;;;6.15;4.28;;;4.90;92.40;;;;;;5044972;28;20052;-66
2020/12/26 09:57:37;;;;;;;8.45;4.03;;;5.00;92.30;;;;;;5058103;28;20076;-66
2020/12/26 10:00:07;;;;;;;6.80;4.25;;;5.10;92.40;;;;;;5063156;28;20509;-70
2020/12/26 10:02:34;;;;;;;7.75;4.43;;;5.10;92.40;;;;;;5062702;28;20087;-69
2020/12/26 10:05:04;;;;;;;8.32;3.90;;;5.00;92.90;;;;;;5063753;28;20048;-67
2020/12/26 10:07:31;;;;;;;5.60;4.07;;;5.10;92.40;;;;;;5064744;28;20045;-67
2020/12/26 10:09:57;;;;;;;12.25;4.22;;;5.10;92.10;;;;;;5064471;28;20041;-67
2020/12/26 10:12:23;;;;;;;5.93;3.42;;;5.10;92.00;;;;;;5051724;28;20096;-67
2020/12/26 10:14:49;;;;;;;8.85;3.72;;;5.00;92.30;;;;;;5044835;28;20048;-67
2020/12/26 10:17:15;;;;;;;8.43;4.53;;;4.90;92.30;;;;;;5044907;28;20067;-67
2020/12/26 10:19:40;;;;;;;8.32;4.30;;;5.10;92.30;;;;;;5047539;28;20045;-68
2020/12/26 10:22:06;;;;;;;7.20;3.80;;;5.10;92.10;;;;;;5045012;28;20128;-68
2020/12/26 10:24:32;;;;;;;7.13;4.25;;;5.10;91.90;;;;;;5044793;28;20482;-67
2020/12/26 10:26:58;;;;;;;10.55;5.35;;;5.10;91.80;;;;;;5055431;28;20049;-67
2020/12/26 10:29:23;;;;;;;6.80;4.35;;;5.30;91.50;;;;;;5046433;28;20049;-67
2020/12/26 10:31:49;;;;;;;9.02;4.55;;;5.30;91.80;;;;;;5048026;28;20037;-68
2020/12/26 10:34:15;;;;;;;7.63;3.45;;;5.30;91.60;;;;;;5060302;28;20041;-67
2020/12/26 10:36:42;;;;;;;6.03;3.67;;;5.50;91.60;;;;;;5047562;28;20111;-67
2020/12/26 10:39:08;;;;;;;10.38;5.47;;;5.20;91.70;;;;;;5047057;28;20045;-67
2020/12/26 10:41:34;;;;;;;8.65;3.92;;;5.30;91.70;;;;;;5044636;28;20098;-67
2020/12/26 10:44:00;;;;;;;7.95;4.18;;;5.40;91.40;;;;;;5044632;28;20128;-67
2020/12/26 10:46:26;;;;;;;8.05;4.30;;;5.40;91.50;;;;;;5044327;28;20543;-67
2020/12/26 10:48:52;;;;;;;9.25;4.68;;;5.40;91.50;;;;;;5046769;28;20048;-67
2020/12/26 10:51:18;;;;;;;6.53;4.97;;;5.40;91.60;;;;;;5048850;28;20073;-67
2020/12/26 10:53:43;;;;;;;10.73;5.03;;;5.40;91.40;;;;;;5048663;28;20077;-67
2020/12/26 10:56:09;;;;;;;7.57;4.90;;;5.30;91.40;;;;;;5048425;28;20037;-67
2020/12/26 10:58:35;;;;;;;10.75;5.53;;;5.40;91.40;;;;;;5055872;28;20162;-67
2020/12/26 11:01:01;;;;;;;7.50;5.03;;;5.30;91.60;;;;;;5059490;28;20071;-67
2020/12/26 11:03:27;;;;;;;8.85;5.00;;;5.30;91.60;;;;;;5034029;28;20493;-65
2020/12/26 11:05:53;;;;;;;9.25;6.43;;;5.30;91.10;;;;;;5038777;28;20060;-65
2020/12/26 11:08:18;;;;;;;8.20;5.47;;;5.50;90.90;;;;;;5031622;28;20046;-65
2020/12/26 11:10:45;;;;;;;9.93;5.72;;;5.40;91.00;;;;;;5037636;28;20041;-66
2020/12/26 11:13:11;;;;;;;9.80;6.20;;;5.30;91.10;;;;;;5070989;28;20136;-65
2020/12/26 11:15:36;;;;;;;8.38;5.78;;;5.50;90.90;;;;;;5046702;28;20666;-65
2020/12/26 11:18:03;;;;;;;11.52;5.97;;;5.40;91.00;;;;;;5061383;28;20056;-65
2020/12/26 11:20:29;;;;;;;9.27;6.38;;;5.50;90.80;;;;;;5058070;28;20076;-65
2020/12/26 11:22:55;;;;;;;8.00;6.35;;;5.50;91.00;;;;;;5056102;28;20051;-65
2020/12/26 11:25:21;;;;;;;9.10;6.68;;;5.50;90.70;;;;;;5047374;28;20582;-65
2020/12/26 11:27:47;;;;;;;11.70;7.57;;;5.50;91.10;;;;;;5060690;28;20075;-66
2020/12/26 11:30:12;;;;;;;8.45;7.35;;;5.50;90.90;;;;;;5046683;28;20529;-65
2020/12/26 11:32:38;;;;;;;13.48;7.75;;;5.60;91.00;;;;;;5040770;28;20073;-65
2020/12/26 11:35:04;;;;;;;9.80;8.32;;;5.60;90.50;;;;;;5049304;28;20126;-65
2020/12/26 11:37:31;;;;;;;9.50;8.00;;;5.60;90.80;;;;;;5064927;28;20532;-65
2020/12/26 11:39:57;;;;;;;11.05;7.65;;;5.60;90.90;;;;;;5040155;28;20395;-65
2020/12/26 11:42:23;;;;;;;13.88;8.13;;;5.70;90.80;;;;;;5059976;28;20481;-65
2020/12/26 11:44:49;;;;;;;10.85;7.07;;;5.50;91.30;;;;;;5047654;28;20057;-64
2020/12/26 11:47:15;;;;;;;11.48;7.18;;;5.50;91.10;;;;;;5040518;28;20056;-73
2020/12/26 11:49:41;;;;;;;10.05;7.97;;;5.70;90.80;;;;;;5034047;28;20049;-70
2020/12/26 11:52:07;;;;;;;11.63;7.80;;;5.60;91.10;;;;;;5050821;28;20140;-65
2020/12/26 11:54:32;;;;;;;11.38;7.47;;;5.50;91.00;;;;;;5040137;28;20555;-65
2020/12/26 11:56:58;;;;;;;10.48;7.80;;;5.70;90.80;;;;;;5069321;28;20568;-67
2020/12/26 11:59:24;;;;;;;8.38;6.70;;;5.70;90.90;;;;;;5049060;28;20045;-63
2020/12/26 12:01:54;;;;;;;9.55;7.50;;;5.80;90.10;;;;;;5047235;28;20057;-65
2020/12/26 12:04:20;;;;;;;;;;;5.70;90.50;;;;;;5029228;28;20524;-66
2020/12/26 12:06:47;;;;;;;9.25;6.88;;;5.70;90.20;;;;;;5060113;28;19952;-67
2020/12/26 12:09:12;;;;;;;9.10;6.63;;;5.70;90.00;;;;;;5044237;28;20465;-68
2020/12/26 12:11:39;;;;;;;10.60;7.55;;;5.70;89.60;;;;;;5065915;28;20051;-67
2020/12/26 12:14:05;;;;;;;9.68;7.95;;;5.70;89.70;;;;;;5052170;28;20049;-66
2020/12/26 12:16:31;;;;;;;11.23;6.90;;;5.60;90.60;;;;;;5046910;28;20334;-66
2020/12/26 12:18:56;;;;;;;12.30;8.77;;;5.70;90.10;;;;;;5023579;28;20844;-68
2020/12/26 12:21:22;;;;;;;10.00;7.25;;;5.70;90.00;;;;;;5062492;28;20095;-65
2020/12/26 12:23:48;;;;;;;9.00;7.38;;;5.70;90.10;;;;;;5058306;28;20049;-67
2020/12/26 12:26:24;;;;;;;11.88;7.60;;;5.70;89.80;;;;;;5039105;28;20119;-67
2020/12/26 12:28:56;;;;;;;9.63;7.63;;;5.80;88.80;;;;;;5040487;28;20030;-68
2020/12/26 12:31:23;;;;;;;9.73;7.07;;;5.80;89.20;;;;;;5039591;28;20053;-67
2020/12/26 12:33:49;;;;;;;9.80;7.32;;;5.80;88.80;;;;;;5034892;28;20042;-69
2020/12/26 12:36:15;;;;;;;10.20;7.03;;;5.80;88.80;;;;;;5043279;28;20053;-71
2020/12/26 12:38:42;;;;;;;9.38;7.70;;;5.80;88.50;;;;;;5039360;28;20167;-73
2020/12/26 12:41:07;;;;;;;9.80;7.68;;;5.70;89.20;;;;;;5043093;28;20060;-72
2020/12/26 12:43:33;;;;;;;13.75;7.47;;;5.70;89.90;;;;;;5037114;28;20037;-72
2020/12/26 12:45:59;;;;;;;9.07;7.32;;;5.70;90.10;;;;;;5041169;28;20059;-72
2020/12/26 12:48:25;;;;;;;8.38;6.00;;;5.70;90.00;;;;;;5030925;28;20548;-72
2020/12/26 12:50:50;;;;;;;7.57;6.13;;;5.70;90.10;;;;;;5039874;28;20088;-73
2020/12/26 12:53:16;;;;;;;8.57;5.93;;;5.80;89.90;;;;;;5042386;28;20056;-72
2020/12/26 12:55:42;;;;;;;7.82;5.57;;;5.80;88.90;;;;;;5040659;28;20140;-73
2020/12/26 12:58:08;;;;;;;8.13;5.50;;;5.80;89.00;;;;;;5037751;28;20049;-73